Time;durP1;ratioP1;P1;durP2;ratioP2;P2;SDS_P1;SDS_P2;PMS_P1;PMS_P2;Temp;Humidity;BMP_temperature;BMP_pressure;BME280_temperature;BME280_humidity;BME280_pressure;Samples;Min_cycle;Max_cycle;Signal;HPM_P1;HPM_P2
2021/03/04 00:00:06;;;;;;;26.90;15.67;;;7.80;99.90;;;;;;5097393;28;20478;-85
2021/03/04 00:02:32;;;;;;;19.70;14.77;;;7.80;99.90;;;;;;5096846;28;20522;-85
2021/03/04 00:04:59;;;;;;;18.87;14.70;;;7.70;99.90;;;;;;5102277;28;20443;-85
2021/03/04 00:07:25;;;;;;;22.60;14.73;;;7.70;99.90;;;;;;5117748;28;20490;-85
2021/03/04 00:09:51;;;;;;;23.17;15.67;;;7.80;99.90;;;;;;5111297;28;20457;-85
2021/03/04 00:12:19;;;;;;;23.37;16.20;;;7.80;99.90;;;;;;5096955;28;20529;-84
2021/03/04 00:14:45;;;;;;;29.87;18.40;;;7.80;99.90;;;;;;5119087;28;20423;-85
2021/03/04 00:17:11;;;;;;;22.17;16.03;;;7.80;99.90;;;;;;5120774;28;20434;-84
2021/03/04 00:19:38;;;;;;;30.00;15.77;;;7.80;99.90;;;;;;5113690;28;20487;-83
2021/03/04 00:22:05;;;;;;;26.00;15.20;;;7.80;99.90;;;;;;5095962;28;20467;-83
2021/03/04 00:24:31;;;;;;;29.40;16.13;;;7.90;99.90;;;;;;5095988;28;20539;-84
2021/03/04 00:26:57;;;;;;;27.13;15.57;;;7.90;99.90;;;;;;5095794;28;20651;-83
2021/03/04 00:29:25;;;;;;;21.57;14.10;;;7.90;99.90;;;;;;5094180;28;20498;-83
2021/03/04 00:31:51;;;;;;;20.87;11.73;;;7.90;99.90;;;;;;5095453;28;20538;-83
2021/03/04 00:34:18;;;;;;;18.77;11.50;;;8.00;99.90;;;;;;5095538;28;20541;-83
2021/03/04 00:36:44;;;;;;;16.60;10.60;;;8.10;99.90;;;;;;5095515;28;20869;-83
2021/03/04 00:39:13;;;;;;;19.33;11.90;;;8.30;99.90;;;;;;5095209;28;20497;-85
2021/03/04 00:41:42;;;;;;;19.77;13.10;;;8.40;99.90;;;;;;5057373;28;20455;-85
2021/03/04 00:44:09;;;;;;;21.30;14.00;;;8.30;99.90;;;;;;5093823;28;20462;-85
2021/03/04 00:46:37;;;;;;;24.40;16.50;;;8.10;99.90;;;;;;5076528;28;20530;-84
2021/03/04 00:49:03;;;;;;;21.93;14.40;;;7.90;99.90;;;;;;5088637;28;20684;-84
2021/03/04 00:51:30;;;;;;;16.97;12.70;;;7.90;99.90;;;;;;5074842;28;20526;-82
2021/03/04 00:53:56;;;;;;;17.33;13.90;;;7.80;99.90;;;;;;5074825;28;20832;-83
2021/03/04 00:56:23;;;;;;;22.17;14.87;;;7.80;99.90;;;;;;5074944;28;21009;-83
2021/03/04 00:58:49;;;;;;;20.83;13.63;;;7.70;99.90;;;;;;5073399;28;20447;-82
2021/03/04 01:01:16;;;;;;;20.07;13.20;;;7.60;99.90;;;;;;5074688;28;20476;-83
2021/03/04 01:03:43;;;;;;;17.63;13.27;;;7.50;99.90;;;;;;5074477;28;20864;-83
2021/03/04 01:06:09;;;;;;;19.50;14.63;;;7.50;99.90;;;;;;5074410;28;20448;-84
2021/03/04 01:08:36;;;;;;;23.13;14.30;;;7.50;99.90;;;;;;5073945;28;20998;-84
2021/03/04 01:11:03;;;;;;;23.70;13.10;;;7.40;99.90;;;;;;5074393;28;20856;-84
2021/03/04 01:13:29;;;;;;;20.83;14.03;;;7.30;99.90;;;;;;5073228;28;20458;-84
2021/03/04 01:15:55;;;;;;;19.90;13.37;;;7.30;99.90;;;;;;5074256;28;21001;-84
2021/03/04 01:18:22;;;;;;;28.60;15.83;;;7.30;99.90;;;;;;5074321;28;21038;-84
2021/03/04 01:20:49;;;;;;;25.37;15.67;;;7.30;99.90;;;;;;5074599;28;20547;-84
2021/03/04 01:23:15;;;;;;;18.80;15.40;;;7.30;99.90;;;;;;5074085;28;20531;-83
2021/03/04 01:25:42;;;;;;;22.63;14.30;;;7.30;99.90;;;;;;5074101;28;20447;-83
2021/03/04 01:28:08;;;;;;;21.40;13.60;;;7.30;99.90;;;;;;5072560;28;20503;-83
2021/03/04 01:30:35;;;;;;;19.00;12.80;;;7.40;99.90;;;;;;5074235;28;20528;-83
2021/03/04 01:33:02;;;;;;;16.97;11.90;;;7.40;99.90;;;;;;5074356;28;20447;-82
2021/03/04 01:35:28;;;;;;;19.97;12.10;;;7.50;99.90;;;;;;5074400;28;20538;-83
2021/03/04 01:37:56;;;;;;;21.63;12.33;;;7.60;99.90;;;;;;5072882;28;20460;-83
2021/03/04 01:40:22;;;;;;;20.85;12.20;;;7.60;99.90;;;;;;5073894;28;20470;-83
2021/03/04 01:42:49;;;;;;;17.20;12.53;;;7.70;99.90;;;;;;5072457;28;20201;-83
2021/03/04 01:45:17;;;;;;;22.40;12.73;;;7.60;99.90;;;;;;5073627;28;20539;-83
2021/03/04 01:47:48;;;;;;;21.27;12.63;;;7.50;99.90;;;;;;5073616;28;20459;-84
2021/03/04 01:50:15;;;;;;;20.37;13.10;;;7.40;99.90;;;;;;5072740;28;20467;-84
2021/03/04 01:52:42;;;;;;;18.70;12.00;;;7.40;99.90;;;;;;5073550;28;20990;-84
2021/03/04 01:55:11;;;;;;;23.20;12.90;;;7.40;99.90;;;;;;5073583;28;20543;-83
2021/03/04 01:57:38;;;;;;;24.23;12.93;;;7.40;99.90;;;;;;5072388;28;20998;-83
2021/03/04 02:00:06;;;;;;;18.77;13.80;;;7.40;99.90;;;;;;5073671;28;20452;-83
2021/03/04 02:03:16;;;;;;;18.03;12.07;;;7.50;99.90;;;;;;5073302;28;21014;-83
2021/03/04 02:05:42;;;;;;;16.07;11.73;;;7.50;99.90;;;;;;5073413;28;20505;-83
2021/03/04 02:08:17;;;;;;;18.00;13.90;;;7.60;99.90;;;;;;5053859;28;20490;-84
2021/03/04 02:10:49;;;;;;;16.77;11.90;;;7.50;99.90;;;;;;5073439;28;20529;-83
2021/03/04 02:13:24;;;;;;;12.90;11.33;;;7.50;99.90;;;;;;5071837;28;20531;-83
2021/03/04 02:15:56;;;;;;;20.73;12.27;;;7.50;99.90;;;;;;5073407;28;20454;-83
2021/03/04 02:18:27;;;;;;;20.40;11.37;;;7.50;99.90;;;;;;5074393;28;20482;-83
2021/03/04 02:21:17;;;;;;;23.50;13.10;;;7.50;99.90;;;;;;5093846;28;20450;-84
2021/03/04 02:24:19;;;;;;;20.47;12.40;;;7.50;99.90;;;;;;5093261;28;20846;-83
2021/03/04 02:27:09;;;;;;;16.57;11.47;;;7.50;99.90;;;;;;5091040;28;21010;-83
2021/03/04 02:29:42;;;;;;;18.87;12.60;;;7.50;99.90;;;;;;5087880;28;20526;-83
2021/03/04 02:32:10;;;;;;;19.50;12.20;;;7.50;99.90;;;;;;5092829;28;20838;-83
2021/03/04 02:34:48;;;;;;;16.80;13.40;;;7.50;99.90;;;;;;5093884;28;20942;-82
2021/03/04 02:37:19;;;;;;;17.93;13.27;;;7.50;99.90;;;;;;5093149;28;20497;-82
2021/03/04 02:39:47;;;;;;;15.37;11.53;;;7.40;99.90;;;;;;5093088;28;21012;-82
2021/03/04 02:42:19;;;;;;;17.87;12.00;;;7.40;99.90;;;;;;5092906;28;20491;-82
2021/03/04 02:44:46;;;;;;;20.50;13.80;;;7.40;99.90;;;;;;5093198;28;20474;-83
2021/03/04 02:47:14;;;;;;;20.33;12.30;;;7.40;99.90;;;;;;5093012;28;20546;-83
2021/03/04 02:49:41;;;;;;;16.43;10.60;;;7.40;99.90;;;;;;5079684;28;20497;-83
2021/03/04 02:52:08;;;;;;;17.50;10.70;;;7.30;99.90;;;;;;5077106;28;20467;-82
2021/03/04 02:54:35;;;;;;;18.03;11.07;;;7.30;99.90;;;;;;5077547;28;20476;-83
2021/03/04 02:57:02;;;;;;;15.03;10.40;;;7.20;99.90;;;;;;5078315;28;20547;-84
2021/03/04 02:59:31;;;;;;;15.07;9.73;;;7.20;99.90;;;;;;5077409;28;20491;-84
2021/03/04 03:01:58;;;;;;;14.63;10.87;;;7.10;99.90;;;;;;5089849;28;20467;-84
2021/03/04 03:04:26;;;;;;;20.00;12.00;;;7.10;99.90;;;;;;5101377;28;20436;-85
2021/03/04 03:06:54;;;;;;;18.23;12.20;;;7.10;99.90;;;;;;5102164;28;20443;-84
2021/03/04 03:09:21;;;;;;;17.37;11.40;;;7.10;99.90;;;;;;5092040;28;20551;-83
2021/03/04 03:11:48;;;;;;;17.13;12.90;;;7.10;99.90;;;;;;5078070;28;20483;-84
2021/03/04 03:14:15;;;;;;;27.08;13.80;;;7.20;99.90;;;;;;5076275;28;20479;-84
2021/03/04 03:16:42;;;;;;;13.83;11.20;;;7.20;99.90;;;;;;5076337;28;20205;-84
2021/03/04 03:19:09;;;;;;;19.02;11.18;;;7.20;99.90;;;;;;5083018;28;20470;-84
2021/03/04 03:21:36;;;;;;;18.57;11.40;;;7.10;99.90;;;;;;5096624;28;20237;-84
2021/03/04 03:24:02;;;;;;;17.65;11.93;;;7.00;99.90;;;;;;5096626;28;20462;-84
2021/03/04 03:26:30;;;;;;;14.10;10.27;;;7.00;99.90;;;;;;5096757;28;20308;-84
2021/03/04 03:28:57;;;;;;;15.82;10.95;;;7.00;99.90;;;;;;5092131;28;20343;-84
2021/03/04 03:31:26;;;;;;;16.80;11.73;;;7.00;99.90;;;;;;5076318;28;20230;-84
2021/03/04 03:33:55;;;;;;;15.27;11.30;;;7.00;99.90;;;;;;5075948;28;20736;-84
2021/03/04 03:36:22;;;;;;;14.80;10.60;;;7.00;99.90;;;;;;5076221;28;20454;-84
2021/03/04 03:38:50;;;;;;;20.83;13.00;;;7.00;99.90;;;;;;5053849;28;20436;-84
2021/03/04 03:41:18;;;;;;;21.23;12.67;;;7.00;99.90;;;;;;5053841;28;20602;-84
2021/03/04 03:43:46;;;;;;;16.20;11.95;;;6.90;99.90;;;;;;5052985;28;20441;-83
2021/03/04 03:46:14;;;;;;;19.70;11.03;;;6.90;99.90;;;;;;5054061;28;20202;-84
2021/03/04 03:48:41;;;;;;;19.93;11.53;;;6.90;99.90;;;;;;5053420;28;20579;-83
2021/03/04 03:51:10;;;;;;;17.75;12.40;;;6.80;99.90;;;;;;5052941;28;20627;-84
2021/03/04 03:53:37;;;;;;;14.97;10.93;;;6.80;99.90;;;;;;5053422;28;20209;-83
2021/03/04 03:56:03;;;;;;;14.40;10.82;;;6.70;99.90;;;;;;5053799;28;20558;-83
2021/03/04 03:58:31;;;;;;;13.90;9.98;;;6.70;99.90;;;;;;5052290;28;20285;-83
2021/03/04 04:00:58;;;;;;;19.20;12.00;;;6.70;99.90;;;;;;5053441;28;20289;-84
2021/03/04 04:03:25;;;;;;;17.73;11.80;;;6.70;99.90;;;;;;5065770;28;20232;-83
2021/03/04 04:05:51;;;;;;;17.55;12.07;;;6.60;99.90;;;;;;5076638;28;20278;-83
2021/03/04 04:08:20;;;;;;;17.50;11.32;;;6.60;99.90;;;;;;5076366;28;20316;-84
2021/03/04 04:10:47;;;;;;;15.45;10.77;;;6.60;99.90;;;;;;5096451;28;20295;-83
2021/03/04 04:13:15;;;;;;;17.97;12.90;;;6.50;99.90;;;;;;5110262;28;20185;-81
2021/03/04 04:15:42;;;;;;;19.02;12.27;;;6.50;99.90;;;;;;5119090;28;20446;-82
2021/03/04 04:18:09;;;;;;;25.35;13.45;;;6.40;99.90;;;;;;5100888;28;20209;-83
2021/03/04 04:20:36;;;;;;;19.25;12.68;;;6.40;99.90;;;;;;5095697;28;20318;-84
2021/03/04 04:23:03;;;;;;;20.63;11.50;;;6.40;99.90;;;;;;5096774;28;20227;-83
2021/03/04 04:25:30;;;;;;;13.77;11.13;;;6.40;99.90;;;;;;5119053;28;20204;-82
2021/03/04 04:27:57;;;;;;;20.92;12.63;;;6.40;99.90;;;;;;5116928;28;20252;-83
2021/03/04 04:30:25;;;;;;;18.05;11.85;;;6.40;99.90;;;;;;5111394;28;20240;-83
2021/03/04 04:32:52;;;;;;;15.38;10.25;;;6.40;99.90;;;;;;5096150;28;20281;-83
2021/03/04 04:35:19;;;;;;;14.98;12.27;;;6.50;99.90;;;;;;5095380;28;20201;-82
2021/03/04 04:37:45;;;;;;;15.65;10.85;;;6.40;99.90;;;;;;5095287;28;20636;-83
2021/03/04 04:40:13;;;;;;;17.33;11.35;;;6.40;99.90;;;;;;5095253;28;20197;-83
2021/03/04 04:42:41;;;;;;;17.63;11.80;;;6.40;99.90;;;;;;5093793;28;20208;-83
2021/03/04 04:45:08;;;;;;;18.90;12.10;;;6.30;99.90;;;;;;5095143;28;20280;-83
2021/03/04 04:47:35;;;;;;;19.70;11.82;;;6.30;99.90;;;;;;5093723;28;20287;-82
2021/03/04 04:50:01;;;;;;;18.55;12.75;;;6.30;99.90;;;;;;5094102;28;20319;-82
2021/03/04 04:52:28;;;;;;;20.83;12.45;;;6.20;99.90;;;;;;5095096;28;20296;-82
2021/03/04 04:54:54;;;;;;;23.00;13.00;;;6.20;99.90;;;;;;5094889;28;20287;-82
2021/03/04 04:57:21;;;;;;;18.20;11.57;;;6.20;99.90;;;;;;5093516;28;20205;-82
2021/03/04 04:59:49;;;;;;;17.48;10.80;;;6.30;99.90;;;;;;5094803;28;20205;-82
2021/03/04 05:02:15;;;;;;;19.55;13.27;;;6.30;99.90;;;;;;5094900;28;20727;-82
2021/03/04 05:04:41;;;;;;;20.20;12.35;;;6.20;99.90;;;;;;5094487;28;20291;-82
2021/03/04 05:07:08;;;;;;;20.75;13.48;;;6.20;99.90;;;;;;5094827;28;20296;-82
2021/03/04 05:09:34;;;;;;;17.05;12.07;;;6.10;99.90;;;;;;5093520;28;20650;-82
2021/03/04 05:12:01;;;;;;;17.67;11.80;;;6.10;99.90;;;;;;5093699;28;20296;-82
2021/03/04 05:14:27;;;;;;;19.98;12.55;;;6.10;99.90;;;;;;5093284;28;20232;-82
2021/03/04 05:16:54;;;;;;;17.85;11.38;;;6.10;99.90;;;;;;5094299;28;20228;-82
2021/03/04 05:19:23;;;;;;;16.65;11.32;;;6.20;99.90;;;;;;5093488;28;20293;-81
2021/03/04 05:21:49;;;;;;;14.50;9.82;;;6.20;99.90;;;;;;5094597;28;20200;-81
2021/03/04 05:24:16;;;;;;;19.50;11.07;;;6.20;99.90;;;;;;5094236;28;20230;-82
2021/03/04 05:26:44;;;;;;;16.52;9.48;;;6.30;99.90;;;;;;5094238;28;20310;-82
2021/03/04 05:29:11;;;;;;;14.07;9.88;;;6.50;99.90;;;;;;5092705;28;20249;-83
2021/03/04 05:31:37;;;;;;;13.02;8.90;;;6.60;99.90;;;;;;5093648;28;20228;-83
2021/03/04 05:34:05;;;;;;;13.57;9.48;;;6.70;99.90;;;;;;5093902;28;20637;-84
2021/03/04 05:36:31;;;;;;;10.80;7.90;;;6.70;99.90;;;;;;5093984;28;20204;-84
2021/03/04 05:38:58;;;;;;;12.70;8.25;;;6.80;99.90;;;;;;5094342;28;20296;-84
2021/03/04 05:41:25;;;;;;;14.60;9.55;;;6.80;99.90;;;;;;5094108;28;20223;-83
2021/03/04 05:43:51;;;;;;;14.57;8.85;;;6.80;99.90;;;;;;5092728;28;20204;-83
2021/03/04 05:46:22;;;;;;;13.00;8.73;;;6.90;99.90;;;;;;5058436;28;20201;-83
2021/03/04 05:48:50;;;;;;;12.95;9.30;;;6.90;99.90;;;;;;5085421;28;20229;-83
2021/03/04 05:51:22;;;;;;;12.77;8.38;;;6.90;99.90;;;;;;5073773;28;20556;-83
2021/03/04 05:53:51;;;;;;;17.75;9.00;;;6.90;99.90;;;;;;5073388;28;20205;-83
2021/03/04 05:56:20;;;;;;;12.18;8.93;;;6.90;99.90;;;;;;5073522;28;20288;-83
2021/03/04 05:58:47;;;;;;;15.53;10.17;;;6.90;99.90;;;;;;5072061;28;20623;-83
2021/03/04 06:01:14;;;;;;;15.52;9.40;;;6.90;99.90;;;;;;5073421;28;20547;-83
2021/03/04 06:03:41;;;;;;;13.52;8.20;;;6.90;99.90;;;;;;5073053;28;20296;-83
2021/03/04 06:06:07;;;;;;;12.55;8.50;;;6.90;99.90;;;;;;5073332;28;20347;-83
2021/03/04 06:08:35;;;;;;;11.55;7.85;;;6.90;99.90;;;;;;5073203;28;20320;-83
2021/03/04 06:11:02;;;;;;;13.40;8.82;;;6.80;99.90;;;;;;5072734;28;20289;-83
2021/03/04 06:13:29;;;;;;;11.68;9.20;;;6.80;99.90;;;;;;5071810;28;20291;-83
2021/03/04 06:15:55;;;;;;;14.30;8.32;;;6.80;99.90;;;;;;5073258;28;20288;-83
2021/03/04 06:18:22;;;;;;;12.57;8.88;;;6.70;99.90;;;;;;5072668;28;20299;-83
2021/03/04 06:20:49;;;;;;;10.98;8.57;;;6.60;99.90;;;;;;5072617;28;20284;-83
2021/03/04 06:23:15;;;;;;;11.30;8.65;;;6.60;99.90;;;;;;5072832;28;20201;-83
2021/03/04 06:25:45;;;;;;;16.75;10.52;;;6.40;99.90;;;;;;5073125;28;20296;-82
2021/03/04 06:28:11;;;;;;;14.00;10.10;;;6.40;99.90;;;;;;5071457;28;20229;-82
2021/03/04 06:30:39;;;;;;;16.98;10.10;;;6.30;99.90;;;;;;5072275;28;20299;-82
2021/03/04 06:33:08;;;;;;;15.95;11.40;;;6.20;99.90;;;;;;5072944;28;20236;-82
2021/03/04 06:35:36;;;;;;;19.83;11.00;;;6.30;99.90;;;;;;5072587;28;20229;-82
2021/03/04 06:38:13;;;;;;;11.98;10.13;;;6.30;99.90;;;;;;5072865;28;20205;-83
2021/03/04 06:40:40;;;;;;;17.90;13.23;;;6.30;99.90;;;;;;5072911;28;20721;-83
2021/03/04 06:43:07;;;;;;;18.02;13.07;;;6.40;99.90;;;;;;5071556;28;20291;-83
2021/03/04 06:45:36;;;;;;;16.65;11.70;;;6.40;99.90;;;;;;5072886;28;20223;-82
2021/03/04 06:48:07;;;;;;;14.05;9.98;;;6.50;99.90;;;;;;5072772;28;20206;-83
2021/03/04 06:50:34;;;;;;;16.65;10.55;;;6.50;99.90;;;;;;5071724;28;20284;-83
2021/03/04 06:53:14;;;;;;;16.67;11.77;;;6.50;99.90;;;;;;5072593;28;20669;-83
2021/03/04 06:55:51;;;;;;;17.80;11.68;;;6.50;99.90;;;;;;5072706;28;20346;-83
2021/03/04 06:58:25;;;;;;;15.60;11.68;;;6.50;99.90;;;;;;5071296;28;20201;-83
2021/03/04 07:01:10;;;;;;;19.92;13.48;;;6.40;99.90;;;;;;5072811;28;20291;-83
2021/03/04 07:03:43;;;;;;;18.50;11.45;;;6.40;99.90;;;;;;5072593;28;20255;-83
2021/03/04 07:06:11;;;;;;;16.58;11.85;;;6.40;99.90;;;;;;5072214;28;20209;-83
2021/03/04 07:08:40;;;;;;;18.95;12.90;;;6.40;99.90;;;;;;5072521;28;20719;-83
2021/03/04 07:11:08;;;;;;;16.70;10.33;;;6.40;99.90;;;;;;5072168;28;20282;-84
2021/03/04 07:13:37;;;;;;;16.30;11.68;;;6.40;99.90;;;;;;5071376;28;20469;-83
2021/03/04 07:16:05;;;;;;;16.80;11.00;;;6.50;99.90;;;;;;5072392;28;20292;-83
2021/03/04 07:18:39;;;;;;;14.93;11.35;;;6.50;99.90;;;;;;5071818;28;20288;-82
2021/03/04 07:21:09;;;;;;;16.25;12.02;;;6.60;99.90;;;;;;5072538;28;20296;-82
2021/03/04 07:23:38;;;;;;;14.70;11.20;;;6.70;99.90;;;;;;5072377;28;20216;-82
2021/03/04 07:26:06;;;;;;;15.10;9.90;;;6.90;99.90;;;;;;5072543;28;20448;-82
2021/03/04 07:28:35;;;;;;;15.80;10.27;;;7.00;99.90;;;;;;5070836;28;20237;-83
2021/03/04 07:31:03;;;;;;;21.30;10.60;;;7.30;99.90;;;;;;5071246;28;20304;-83
2021/03/04 07:33:30;;;;;;;17.50;13.32;;;7.30;99.90;;;;;;5072407;28;20212;-84
2021/03/04 07:35:57;;;;;;;18.58;12.10;;;7.30;99.90;;;;;;5074168;28;20292;-84
2021/03/04 07:38:25;;;;;;;16.25;11.07;;;7.50;99.90;;;;;;5076338;28;20619;-84
2021/03/04 07:41:05;;;;;;;18.27;10.67;;;7.70;99.90;;;;;;5075870;28;20676;-84
2021/03/04 07:43:47;;;;;;;14.33;10.87;;;7.80;99.90;;;;;;5074632;28;20535;-84
2021/03/04 07:46:33;;;;;;;15.13;11.52;;;8.00;99.90;;;;;;5075555;28;20448;-84
2021/03/04 07:49:00;;;;;;;11.97;10.17;;;8.50;99.90;;;;;;5074621;28;20217;-84
2021/03/04 07:51:26;;;;;;;15.87;11.20;;;;;;;;;;5075591;28;20621;-84
2021/03/04 07:53:54;;;;;;;16.80;11.10;;;8.50;99.90;;;;;;5075796;28;20530;-85
2021/03/04 07:56:29;;;;;;;14.90;10.87;;;8.60;99.90;;;;;;5075656;28;20502;-84
2021/03/04 07:59:08;;;;;;;16.33;11.47;;;8.60;99.90;;;;;;5074445;28;20454;-84
2021/03/04 08:01:35;;;;;;;16.87;11.47;;;8.90;99.90;;;;;;5075697;28;20458;-83
2021/03/04 08:04:02;;;;;;;17.33;11.47;;;;;;;;;;5075242;28;20451;-82
2021/03/04 08:06:29;;;;;;;19.40;11.00;;;;;;;;;;5075545;28;20538;-84
2021/03/04 08:08:55;;;;;;;18.27;10.33;;;;;;;;;;5077731;28;20498;-84
2021/03/04 08:11:26;;;;;;;15.40;11.67;;;9.00;99.90;;;;;;5079703;28;20873;-84
2021/03/04 08:13:53;;;;;;;15.57;11.80;;;;;;;;;;5073628;28;20438;-83
2021/03/04 08:16:20;;;;;;;15.27;9.97;;;9.50;99.90;;;;;;5075386;28;20443;-82
2021/03/04 08:18:54;;;;;;;16.93;10.60;;;10.20;99.90;;;;;;5074262;28;20477;-82
2021/03/04 08:21:21;;;;;;;18.10;10.37;;;10.00;99.60;;;;;;5075804;28;20462;-82
2021/03/04 08:23:48;;;;;;;15.10;10.07;;;9.60;99.90;;;;;;5075572;28;20923;-76
2021/03/04 08:26:23;;;;;;;15.90;10.27;;;9.80;99.90;;;;;;5086003;28;21096;-82
2021/03/04 08:28:50;;;;;;;16.73;9.90;;;11.10;99.90;;;;;;5082436;28;21008;-80
2021/03/04 08:31:16;;;;;;;14.30;10.53;;;9.40;99.90;;;;;;5076860;28;20895;-82
2021/03/04 08:33:54;;;;;;;16.10;11.57;;;9.70;99.90;;;;;;5090629;28;20459;-80
2021/03/04 08:36:20;;;;;;;12.00;10.50;;;9.60;99.20;;;;;;5091050;28;20540;-80
2021/03/04 08:38:47;;;;;;;12.13;9.87;;;9.80;98.60;;;;;;5079457;28;20542;-81
2021/03/04 08:41:20;;;;;;;11.70;8.97;;;10.00;97.80;;;;;;5075066;28;20448;-81
2021/03/04 08:43:47;;;;;;;16.20;11.40;;;10.20;97.90;;;;;;5073464;28;20454;-81
2021/03/04 08:46:13;;;;;;;15.33;10.73;;;10.30;97.20;;;;;;5074705;28;20500;-81
2021/03/04 08:48:43;;;;;;;13.20;9.30;;;10.40;96.70;;;;;;5073646;28;20578;-81
2021/03/04 08:51:12;;;;;;;14.07;9.93;;;10.60;96.20;;;;;;5074671;28;20454;-81
2021/03/04 08:53:39;;;;;;;13.80;9.13;;;10.80;95.70;;;;;;5074658;28;20955;-81
2021/03/04 08:56:07;;;;;;;12.40;9.40;;;10.90;95.60;;;;;;5074299;28;20536;-81
2021/03/04 08:58:40;;;;;;;15.03;8.77;;;11.00;95.30;;;;;;5073188;28;20539;-81
2021/03/04 09:01:06;;;;;;;13.53;8.33;;;11.00;94.50;;;;;;5074432;28;20967;-80
2021/03/04 09:03:35;;;;;;;9.20;7.83;;;11.20;94.10;;;;;;5074255;28;20494;-81
2021/03/04 09:06:06;;;;;;;11.27;8.07;;;11.30;93.50;;;;;;5074310;28;20782;-81
2021/03/04 09:08:35;;;;;;;12.47;7.17;;;11.40;93.70;;;;;;5074137;28;20568;-81
2021/03/04 09:11:02;;;;;;;18.83;8.30;;;11.60;93.50;;;;;;5073576;28;20883;-81
2021/03/04 09:13:29;;;;;;;10.60;7.30;;;12.10;99.90;;;;;;5072925;28;20440;-80
2021/03/04 09:15:58;;;;;;;12.07;7.80;;;12.00;92.30;;;;;;5074023;28;20531;-81
2021/03/04 09:18:25;;;;;;;9.70;8.00;;;12.40;92.10;;;;;;5073463;28;20953;-80
2021/03/04 09:20:53;;;;;;;9.50;7.60;;;12.40;92.30;;;;;;5073638;28;20939;-81
2021/03/04 09:23:20;;;;;;;13.47;8.67;;;12.60;92.40;;;;;;5073811;28;20488;-79
2021/03/04 09:25:47;;;;;;;9.23;6.90;;;12.70;92.90;;;;;;5073823;28;20529;-79
2021/03/04 09:28:15;;;;;;;8.60;6.40;;;13.00;91.40;;;;;;5072406;28;20482;-81
2021/03/04 09:30:42;;;;;;;10.97;8.20;;;13.20;90.30;;;;;;5073717;28;20489;-81
2021/03/04 09:33:19;;;;;;;13.43;7.50;;;13.20;90.00;;;;;;5072871;28;20460;-81
2021/03/04 09:35:59;;;;;;;10.30;7.53;;;13.20;90.00;;;;;;5073618;28;20446;-81
2021/03/04 09:38:26;;;;;;;8.80;6.13;;;13.40;90.20;;;;;;5073646;28;20467;-81
2021/03/04 09:40:55;;;;;;;12.20;8.10;;;13.40;90.10;;;;;;5073615;28;20462;-81
2021/03/04 09:43:22;;;;;;;10.23;6.97;;;13.40;90.20;;;;;;5072256;28;20450;-79
2021/03/04 09:45:51;;;;;;;10.27;7.57;;;13.60;90.10;;;;;;5072806;28;20459;-82
2021/03/04 09:48:29;;;;;;;11.40;7.90;;;13.70;87.20;;;;;;5072850;28;20454;-82
2021/03/04 09:50:56;;;;;;;10.27;6.73;;;13.60;87.40;;;;;;5072956;28;20460;-80
2021/03/04 09:53:22;;;;;;;9.90;6.80;;;13.20;87.20;;;;;;5073264;28;20450;-79
2021/03/04 09:55:49;;;;;;;16.33;7.87;;;13.10;88.90;;;;;;5072842;28;20868;-80
2021/03/04 09:58:20;;;;;;;14.23;9.87;;;13.00;90.00;;;;;;5050502;28;20453;-79
2021/03/04 10:00:54;;;;;;;11.90;7.90;;;13.20;90.80;;;;;;5073166;28;20507;-81
2021/03/04 10:03:21;;;;;;;10.90;6.97;;;13.40;88.50;;;;;;5073089;28;21033;-81
2021/03/04 10:05:48;;;;;;;13.20;8.70;;;13.50;88.30;;;;;;5072960;28;20896;-80
2021/03/04 10:08:16;;;;;;;9.20;6.70;;;13.50;88.90;;;;;;5073204;28;20451;-80
2021/03/04 10:10:45;;;;;;;14.07;6.60;;;13.60;88.80;;;;;;5073213;28;20507;-82
2021/03/04 10:13:11;;;;;;;10.27;6.77;;;13.60;88.30;;;;;;5071046;28;20503;-79
2021/03/04 10:15:42;;;;;;;11.83;7.30;;;13.60;87.50;;;;;;5073197;28;20542;-78
2021/03/04 10:18:10;;;;;;;9.80;7.43;;;13.60;86.80;;;;;;5072413;28;20546;-80
2021/03/04 10:20:37;;;;;;;10.67;7.53;;;13.60;86.60;;;;;;5072609;28;20646;-78
2021/03/04 10:23:04;;;;;;;13.43;7.90;;;13.60;87.60;;;;;;5072968;28;20452;-82
2021/03/04 10:25:31;;;;;;;11.83;7.80;;;13.70;87.60;;;;;;5073009;28;20456;-81
2021/03/04 10:27:59;;;;;;;18.13;8.77;;;13.80;86.80;;;;;;5071432;28;20516;-83
2021/03/04 10:30:26;;;;;;;12.50;7.50;;;13.70;86.50;;;;;;5072832;28;20493;-82
2021/03/04 10:32:53;;;;;;;13.43;8.80;;;13.90;88.00;;;;;;5073015;28;20549;-81
2021/03/04 10:35:20;;;;;;;18.53;8.93;;;14.00;87.90;;;;;;5072581;28;20515;-85
2021/03/04 10:37:47;;;;;;;15.00;10.53;;;14.30;90.00;;;;;;5072770;28;20484;-87
2021/03/04 10:40:16;;;;;;;12.07;10.27;;;14.20;90.00;;;;;;5073499;28;20450;-86
2021/03/04 10:42:43;;;;;;;23.80;9.47;;;14.30;90.10;;;;;;5072112;28;20569;-82
2021/03/04 10:45:11;;;;;;;13.20;9.97;;;14.20;90.40;;;;;;5072891;28;20509;-83
2021/03/04 10:47:38;;;;;;;17.23;10.60;;;14.20;89.80;;;;;;5072861;28;20479;-78
2021/03/04 10:50:08;;;;;;;20.70;9.43;;;14.20;90.00;;;;;;5071806;28;20929;-83
2021/03/04 10:52:34;;;;;;;15.60;10.47;;;14.40;90.10;;;;;;5072623;28;20446;-79
2021/03/04 10:55:01;;;;;;;21.40;10.27;;;14.50;87.90;;;;;;5072595;28;20486;-80
2021/03/04 10:57:27;;;;;;;14.87;9.23;;;14.40;88.10;;;;;;5071536;28;20542;-85
2021/03/04 10:59:53;;;;;;;18.07;9.80;;;14.60;88.50;;;;;;5077123;28;20579;-81
2021/03/04 11:02:20;;;;;;;15.20;9.57;;;14.40;87.50;;;;;;5072802;28;20451;-80
2021/03/04 11:04:46;;;;;;;16.87;9.60;;;14.50;87.40;;;;;;5072463;28;20527;-83
2021/03/04 11:07:14;;;;;;;13.20;8.90;;;14.60;88.10;;;;;;5072653;28;20549;-77
2021/03/04 11:09:40;;;;;;;13.67;9.03;;;14.50;87.90;;;;;;5072445;28;20495;-81
2021/03/04 11:12:07;;;;;;;10.73;9.13;;;14.50;88.50;;;;;;5075538;28;20486;-78
2021/03/04 11:14:35;;;;;;;16.93;8.77;;;14.60;88.90;;;;;;5075056;28;20588;-79
2021/03/04 11:17:02;;;;;;;21.90;9.43;;;14.80;87.50;;;;;;5076294;28;20942;-78
2021/03/04 11:19:30;;;;;;;14.70;9.63;;;14.80;87.10;;;;;;5075940;28;20467;-88
2021/03/04 11:21:57;;;;;;;14.23;9.50;;;14.80;87.80;;;;;;5076571;28;20509;-82
2021/03/04 11:24:24;;;;;;;22.23;11.37;;;15.00;87.70;;;;;;5076159;28;20465;-82
2021/03/04 11:26:51;;;;;;;18.47;10.30;;;15.10;87.80;;;;;;5076073;28;20443;-80
2021/03/04 11:29:18;;;;;;;13.53;9.50;;;15.20;87.50;;;;;;5074698;28;20542;-81
2021/03/04 11:31:44;;;;;;;17.97;10.03;;;15.20;86.60;;;;;;5075928;28;20451;-85
2021/03/04 11:34:14;;;;;;;16.00;9.07;;;15.20;87.50;;;;;;5010489;28;20541;-84
2021/03/04 11:36:40;;;;;;;15.77;10.97;;;15.10;86.70;;;;;;5032704;28;20531;-81
2021/03/04 11:39:07;;;;;;;16.40;8.50;;;15.30;86.10;;;;;;5033233;28;20603;-83
2021/03/04 11:41:34;;;;;;;16.40;10.73;;;15.50;87.10;;;;;;5033148;28;20503;-84
2021/03/04 11:44:01;;;;;;;10.57;8.20;;;15.70;87.20;;;;;;5032056;28;20535;-83
2021/03/04 11:46:27;;;;;;;15.80;9.17;;;15.80;84.80;;;;;;5033392;28;20549;-80
2021/03/04 11:48:54;;;;;;;11.83;8.73;;;16.10;97.70;;;;;;5032604;28;20712;-77
2021/03/04 11:51:21;;;;;;;16.63;8.80;;;16.00;84.00;;;;;;5037053;28;20467;-87
2021/03/04 11:53:48;;;;;;;16.40;9.20;;;16.10;83.80;;;;;;5075221;28;20794;-87
2021/03/04 11:56:14;;;;;;;10.37;7.50;;;16.20;83.00;;;;;;5075757;28;20490;-88
2021/03/04 11:58:44;;;;;;;12.23;6.37;;;16.30;78.20;;;;;;5074219;28;20523;-86
2021/03/04 12:01:10;;;;;;;13.40;5.73;;;15.90;77.50;;;;;;5074367;28;20452;-83
2021/03/04 12:03:37;;;;;;;17.13;6.20;;;17.70;97.30;;;;;;5074594;28;20480;-84
2021/03/04 12:06:03;;;;;;;6.73;5.10;;;15.90;96.20;;;;;;5075565;28;20538;-86
2021/03/04 12:08:30;;;;;;;8.43;5.10;;;15.70;77.20;;;;;;5075794;28;20475;-82
2021/03/04 12:10:57;;;;;;;16.43;7.13;;;15.70;78.00;;;;;;5074928;28;20446;-86
2021/03/04 12:13:24;;;;;;;9.90;6.40;;;15.70;78.50;;;;;;5081948;28;20467;-84
2021/03/04 12:15:51;;;;;;;9.33;4.73;;;15.70;78.60;;;;;;5092579;28;20475;-86
2021/03/04 12:18:18;;;;;;;16.13;5.43;;;15.90;90.30;;;;;;5092737;28;20451;-87
2021/03/04 12:20:44;;;;;;;6.87;4.60;;;16.00;74.80;;;;;;5089053;28;20631;-82
2021/03/04 12:23:11;;;;;;;11.43;5.10;;;16.00;74.80;;;;;;5096095;28;21145;-94
2021/03/04 12:25:37;;;;;;;6.37;4.93;;;15.80;73.70;;;;;;5095718;28;20536;-90
2021/03/04 12:28:04;;;;;;;14.37;5.37;;;15.60;75.10;;;;;;5095212;28;20805;-89
2021/03/04 12:30:30;;;;;;;12.93;4.13;;;15.30;75.90;;;;;;5103712;28;20977;-90
2021/03/04 12:32:57;;;;;;;14.33;6.43;;;15.40;76.60;;;;;;5119133;28;20435;-90
2021/03/04 12:35:24;;;;;;;6.77;4.70;;;15.60;77.50;;;;;;5115828;28;20479;-87
2021/03/04 12:37:50;;;;;;;5.67;4.23;;;15.80;72.90;;;;;;5106584;28;20483;-88
2021/03/04 12:40:17;;;;;;;5.80;3.50;;;16.00;71.20;;;;;;5097513;28;20444;-86
2021/03/04 12:42:43;;;;;;;8.13;4.43;;;15.90;69.40;;;;;;5097922;28;20493;-87
2021/03/04 12:45:11;;;;;;;12.53;3.80;;;15.80;70.10;;;;;;5096886;28;20475;-84